Time;durP1;ratioP1;P1;durP2;ratioP2;P2;SDS_P1;SDS_P2;PMS_P1;PMS_P2;Temp;Humidity;BMP_temperature;BMP_pressure;BME280_temperature;BME280_humidity;BME280_pressure;Samples;Min_cycle;Max_cycle;Signal;HPM_P1;HPM_P2
2022/08/06 00:02:01;;;;;;;6.90;2.22;;;23.00;99.90;;;;;;5013054;28;20038;-72
2022/08/06 00:04:26;;;;;;;6.72;2.78;;;23.00;99.90;;;;;;5012663;28;20051;-74
2022/08/06 00:06:52;;;;;;;5.40;2.47;;;23.00;99.90;;;;;;5012792;28;20068;-75
2022/08/06 00:09:18;;;;;;;5.07;2.97;;;23.00;99.90;;;;;;5012123;28;20037;-74
2022/08/06 00:11:44;;;;;;;6.57;3.17;;;22.90;99.90;;;;;;5013009;28;20476;-75
2022/08/06 00:14:09;;;;;;;5.15;2.63;;;23.00;99.90;;;;;;5012283;28;20479;-75
2022/08/06 00:16:35;;;;;;;5.40;2.50;;;23.00;99.90;;;;;;5013471;28;20026;-74
2022/08/06 00:19:01;;;;;;;5.00;2.95;;;23.00;99.90;;;;;;5012493;28;20046;-72
2022/08/06 00:21:27;;;;;;;3.55;2.20;;;22.90;99.90;;;;;;5012291;28;20407;-74
2022/08/06 00:23:52;;;;;;;4.47;2.50;;;22.90;99.90;;;;;;5012185;28;20403;-74
2022/08/06 00:26:18;;;;;;;5.15;2.30;;;22.70;99.90;;;;;;5012460;28;20034;-75
2022/08/06 00:28:43;;;;;;;4.07;2.40;;;22.80;99.90;;;;;;5012387;28;20026;-74
2022/08/06 00:31:09;;;;;;;5.47;2.47;;;22.80;99.90;;;;;;5013254;28;20169;-75
2022/08/06 00:33:36;;;;;;;5.55;2.45;;;22.90;99.90;;;;;;5012288;28;20439;-75
2022/08/06 00:36:02;;;;;;;4.60;2.50;;;22.70;99.90;;;;;;5013044;28;20041;-75
2022/08/06 00:38:28;;;;;;;6.43;2.80;;;22.70;99.90;;;;;;5011458;28;20050;-74
2022/08/06 00:40:54;;;;;;;5.82;2.65;;;22.70;99.90;;;;;;5012180;28;20439;-75
2022/08/06 00:43:20;;;;;;;3.83;2.33;;;22.70;99.90;;;;;;5012176;28;20117;-75
2022/08/06 00:45:46;;;;;;;7.28;3.30;;;22.60;99.90;;;;;;5013046;28;20117;-74
2022/08/06 00:48:14;;;;;;;4.82;2.97;;;22.50;99.90;;;;;;5011765;28;20038;-74
2022/08/06 00:50:40;;;;;;;4.57;2.85;;;22.50;99.90;;;;;;5012942;28;20026;-75
2022/08/06 00:53:06;;;;;;;5.68;2.25;;;22.70;99.90;;;;;;5012451;28;20042;-75
2022/08/06 00:55:32;;;;;;;4.82;2.75;;;22.70;99.90;;;;;;5012844;28;20026;-75
2022/08/06 00:57:58;;;;;;;5.05;2.60;;;22.70;99.90;;;;;;5012158;28;20120;-75
2022/08/06 01:00:23;;;;;;;4.50;2.38;;;22.60;99.90;;;;;;5011217;28;20064;-75
2022/08/06 01:02:49;;;;;;;4.80;2.90;;;22.40;99.90;;;;;;5012349;28;20117;-75
2022/08/06 01:05:14;;;;;;;4.00;2.53;;;22.50;99.90;;;;;;5012159;28;20533;-75
2022/08/06 01:07:40;;;;;;;5.45;2.88;;;22.50;99.90;;;;;;5012616;28;20040;-75
2022/08/06 01:10:06;;;;;;;4.50;2.53;;;22.60;99.90;;;;;;5011106;28;20034;-74
2022/08/06 01:12:32;;;;;;;3.75;2.33;;;22.60;99.90;;;;;;5012747;28;20022;-75
2022/08/06 01:14:58;;;;;;;5.65;2.47;;;22.70;99.90;;;;;;5011195;28;20466;-74
2022/08/06 01:17:48;;;;;;;4.90;3.00;;;22.60;99.90;;;;;;5012569;28;20084;-75
2022/08/06 01:20:49;;;;;;;5.20;2.72;;;22.30;99.90;;;;;;5011404;28;20035;-74
2022/08/06 01:23:21;;;;;;;5.05;2.50;;;22.40;99.90;;;;;;5012034;28;20050;-75
2022/08/06 01:26:08;;;;;;;4.00;2.50;;;22.30;99.90;;;;;;4996221;28;20026;-74
2022/08/06 01:28:41;;;;;;;4.25;2.67;;;22.50;99.90;;;;;;4998843;28;20025;-74
2022/08/06 01:31:17;;;;;;;6.10;2.85;;;22.60;99.90;;;;;;5015998;28;20080;-74
2022/08/06 01:33:54;;;;;;;4.18;2.55;;;22.60;99.90;;;;;;5015336;28;20030;-74
2022/08/06 01:36:26;;;;;;;5.25;3.35;;;22.50;99.90;;;;;;5015694;28;20112;-74
2022/08/06 01:38:54;;;;;;;5.20;3.00;;;22.50;99.90;;;;;;5014852;28;20496;-74
2022/08/06 01:41:38;;;;;;;4.43;2.47;;;22.50;99.90;;;;;;5014861;28;20029;-74
2022/08/06 01:44:11;;;;;;;4.88;2.75;;;22.60;99.90;;;;;;5015271;28;20479;-74
2022/08/06 01:46:42;;;;;;;5.22;2.60;;;22.60;99.90;;;;;;5015885;28;20045;-74
2022/08/06 01:49:09;;;;;;;4.60;2.83;;;22.50;99.90;;;;;;5015423;28;20030;-74
2022/08/06 01:51:36;;;;;;;4.25;2.70;;;22.50;99.90;;;;;;5015977;28;20034;-74
2022/08/06 01:54:05;;;;;;;5.50;2.83;;;22.40;99.90;;;;;;5014793;28;20476;-74
2022/08/06 01:56:34;;;;;;;6.13;2.67;;;22.30;99.90;;;;;;5015862;28;20038;-73
2022/08/06 01:59:01;;;;;;;5.18;2.75;;;22.30;99.90;;;;;;5015090;28;20545;-74
2022/08/06 02:01:28;;;;;;;4.35;2.85;;;22.40;99.90;;;;;;5013941;28;20030;-74
2022/08/06 02:03:56;;;;;;;4.45;2.47;;;22.40;99.90;;;;;;4995740;28;20034;-74
2022/08/06 02:06:34;;;;;;;7.30;3.00;;;22.50;99.90;;;;;;5004783;28;20034;-74
2022/08/06 02:09:04;;;;;;;4.35;2.75;;;22.20;99.90;;;;;;5014372;28;20053;-74
2022/08/06 02:11:34;;;;;;;4.90;2.83;;;22.10;99.90;;;;;;5015655;28;20439;-74
2022/08/06 02:14:01;;;;;;;6.45;3.30;;;22.10;99.90;;;;;;5014301;28;20022;-74
2022/08/06 02:16:34;;;;;;;4.57;2.70;;;22.00;99.90;;;;;;5015386;28;20061;-74
2022/08/06 02:19:02;;;;;;;4.97;3.00;;;22.20;99.90;;;;;;5014078;28;20618;-74
2022/08/06 02:21:30;;;;;;;5.85;2.92;;;22.20;99.90;;;;;;5014651;28;20041;-74
2022/08/06 02:23:57;;;;;;;6.57;3.03;;;22.20;99.90;;;;;;5014547;28;20030;-74
2022/08/06 02:26:26;;;;;;;6.93;2.90;;;22.20;99.90;;;;;;5015206;28;20037;-74
2022/08/06 02:28:53;;;;;;;5.45;2.90;;;22.20;99.90;;;;;;5014502;28;20032;-74
2022/08/06 02:31:19;;;;;;;5.43;2.70;;;22.10;99.90;;;;;;5015018;28;20076;-74
2022/08/06 02:33:45;;;;;;;5.10;2.20;;;22.10;99.90;;;;;;5014232;28;20129;-74
2022/08/06 02:36:46;;;;;;;5.05;2.78;;;22.10;99.90;;;;;;5015002;28;20109;-74
2022/08/06 02:39:23;;;;;;;4.95;2.55;;;22.10;99.90;;;;;;5013674;28;20037;-74
2022/08/06 02:42:11;;;;;;;4.82;2.15;;;21.80;99.90;;;;;;5014557;28;20388;-74
2022/08/06 02:44:52;;;;;;;4.80;2.92;;;21.90;99.90;;;;;;5013567;28;20029;-74
2022/08/06 02:47:24;;;;;;;8.18;2.88;;;22.00;99.90;;;;;;5014491;28;20021;-74
2022/08/06 02:49:54;;;;;;;5.18;2.40;;;22.00;99.90;;;;;;5014051;28;20068;-74
2022/08/06 02:52:32;;;;;;;4.88;2.67;;;21.80;99.90;;;;;;5014496;28;20117;-74
2022/08/06 02:55:05;;;;;;;4.22;2.75;;;21.60;99.90;;;;;;5014265;28;20046;-74
2022/08/06 02:57:51;;;;;;;4.35;2.47;;;21.50;99.90;;;;;;5013342;28;20121;-74
2022/08/06 03:00:17;;;;;;;4.63;3.08;;;21.60;99.90;;;;;;5013037;28;20108;-73
2022/08/06 03:02:45;;;;;;;4.13;2.58;;;21.70;99.90;;;;;;5007046;28;20034;-72
2022/08/06 03:05:15;;;;;;;5.03;2.80;;;21.80;99.90;;;;;;5008308;28;20555;-72
2022/08/06 03:07:41;;;;;;;5.28;3.13;;;21.70;99.90;;;;;;5008344;28;20109;-73
2022/08/06 03:10:08;;;;;;;5.72;2.70;;;21.80;99.90;;;;;;5009043;28;20030;-73
2022/08/06 03:12:36;;;;;;;4.93;3.03;;;21.90;99.90;;;;;;5008633;28;20445;-73
2022/08/06 03:15:04;;;;;;;3.97;2.22;;;21.70;99.90;;;;;;5008966;28;20053;-72
2022/08/06 03:17:31;;;;;;;4.32;2.40;;;21.80;99.90;;;;;;5000908;28;20396;-73
2022/08/06 03:19:59;;;;;;;4.32;2.60;;;21.70;99.90;;;;;;5005296;28;20037;-72
2022/08/06 03:22:26;;;;;;;4.53;2.78;;;21.60;99.90;;;;;;5007152;28;20120;-72
2022/08/06 03:24:53;;;;;;;6.22;2.78;;;21.50;99.90;;;;;;5009212;28;20037;-72
2022/08/06 03:27:20;;;;;;;4.90;2.80;;;21.20;99.90;;;;;;5008809;28;20574;-72
2022/08/06 03:29:47;;;;;;;4.03;2.35;;;21.40;99.90;;;;;;5008879;28;20037;-72
2022/08/06 03:32:14;;;;;;;4.55;2.67;;;21.50;99.90;;;;;;5009367;28;20117;-72
2022/08/06 03:34:42;;;;;;;3.55;2.20;;;21.40;99.90;;;;;;5008282;28;20034;-73
2022/08/06 03:37:09;;;;;;;5.25;2.85;;;21.30;99.90;;;;;;5009094;28;20045;-72
2022/08/06 03:39:38;;;;;;;5.30;2.97;;;21.20;99.90;;;;;;5009107;28;20042;-72
2022/08/06 03:42:04;;;;;;;3.92;2.58;;;21.20;99.90;;;;;;5009707;28;20041;-72
2022/08/06 03:44:30;;;;;;;6.13;2.30;;;21.30;99.90;;;;;;5008347;28;20029;-72
2022/08/06 03:47:03;;;;;;;3.70;2.30;;;21.30;99.90;;;;;;5005916;28;20030;-72
2022/08/06 03:49:35;;;;;;;5.60;2.70;;;21.30;99.90;;;;;;5005665;28;20044;-72
2022/08/06 03:52:02;;;;;;;4.78;2.65;;;21.30;99.90;;;;;;5004793;28;20041;-72
2022/08/06 03:54:38;;;;;;;4.82;2.53;;;21.50;99.90;;;;;;5005020;28;20150;-74
2022/08/06 03:57:09;;;;;;;6.55;2.85;;;21.20;99.90;;;;;;5003496;28;20045;-74
2022/08/06 03:59:37;;;;;;;4.82;3.05;;;21.20;99.90;;;;;;5004317;28;20080;-74
2022/08/06 04:02:05;;;;;;;6.13;2.83;;;21.30;99.90;;;;;;5005665;28;20057;-74
2022/08/06 04:04:32;;;;;;;4.97;2.40;;;21.50;99.90;;;;;;5005993;28;20091;-74
2022/08/06 04:07:00;;;;;;;4.25;2.25;;;21.50;99.90;;;;;;5005726;28;20061;-74
2022/08/06 04:09:29;;;;;;;4.13;2.53;;;21.40;99.90;;;;;;5004110;28;21625;-74
2022/08/06 04:11:55;;;;;;;4.22;2.38;;;21.50;99.90;;;;;;5006178;28;20038;-74
2022/08/06 04:14:22;;;;;;;4.07;2.30;;;21.80;99.90;;;;;;5001927;28;20029;-74
2022/08/06 04:16:49;;;;;;;4.15;2.38;;;21.80;99.90;;;;;;5005960;28;20105;-74
2022/08/06 04:19:18;;;;;;;4.05;2.08;;;21.70;99.90;;;;;;5004975;28;20042;-74
2022/08/06 04:21:45;;;;;;;4.75;2.35;;;21.90;99.90;;;;;;5005181;28;20022;-74
2022/08/06 04:24:11;;;;;;;4.93;2.80;;;21.80;99.90;;;;;;5005031;28;20030;-74
2022/08/06 04:26:39;;;;;;;4.63;2.70;;;21.90;99.90;;;;;;5006617;28;20919;-74
2022/08/06 04:29:08;;;;;;;3.92;2.60;;;21.90;99.90;;;;;;5005696;28;20029;-74
2022/08/06 04:31:36;;;;;;;3.65;2.40;;;21.90;99.90;;;;;;5005878;28;20030;-74
2022/08/06 04:34:03;;;;;;;4.68;2.80;;;21.90;99.90;;;;;;5004702;28;20053;-74
2022/08/06 04:36:29;;;;;;;4.60;2.60;;;21.90;99.90;;;;;;5005785;28;20030;-74
2022/08/06 04:38:56;;;;;;;6.57;2.92;;;21.90;99.90;;;;;;5004980;28;20050;-74
2022/08/06 04:41:22;;;;;;;3.90;2.42;;;21.80;99.90;;;;;;5004727;28;20590;-74
2022/08/06 04:43:48;;;;;;;4.53;2.55;;;21.80;99.90;;;;;;5005068;28;20038;-74
2022/08/06 04:46:14;;;;;;;6.25;2.65;;;21.90;99.90;;;;;;5005204;28;20029;-74
2022/08/06 04:48:40;;;;;;;4.00;2.63;;;21.70;99.90;;;;;;5004347;28;20066;-74
2022/08/06 04:51:07;;;;;;;5.40;2.55;;;21.80;99.90;;;;;;5004522;28;20064;-74
2022/08/06 04:53:38;;;;;;;5.13;2.75;;;21.70;99.90;;;;;;5004894;28;20517;-74
2022/08/06 04:56:05;;;;;;;5.13;2.10;;;21.60;99.90;;;;;;5006049;28;20025;-74
2022/08/06 04:58:31;;;;;;;4.80;2.60;;;21.70;99.90;;;;;;5004954;28;20141;-74
2022/08/06 05:00:56;;;;;;;4.75;2.42;;;21.80;99.90;;;;;;5008648;28;20616;-74
2022/08/06 05:03:22;;;;;;;3.40;1.98;;;21.60;99.90;;;;;;5008961;28;20038;-73
2022/08/06 05:06:03;;;;;;;5.72;2.47;;;21.60;99.90;;;;;;5009665;28;20079;-74
2022/08/06 05:08:31;;;;;;;8.05;2.50;;;21.60;99.90;;;;;;4999748;28;20037;-74
2022/08/06 05:11:04;;;;;;;7.75;2.83;;;21.70;99.90;;;;;;5008467;28;20026;-74
2022/08/06 05:13:34;;;;;;;4.32;3.08;;;21.50;99.90;;;;;;5008079;28;20095;-74
2022/08/06 05:16:05;;;;;;;4.07;2.53;;;21.70;99.90;;;;;;5007720;28;20030;-74
2022/08/06 05:18:36;;;;;;;4.63;2.58;;;21.70;99.90;;;;;;5008086;28;20029;-74
2022/08/06 05:21:04;;;;;;;5.03;2.63;;;21.60;99.90;;;;;;5008089;28;20026;-74
2022/08/06 05:23:39;;;;;;;4.90;2.70;;;21.50;99.90;;;;;;5008959;28;20459;-74
2022/08/06 05:26:06;;;;;;;3.92;2.63;;;21.50;99.90;;;;;;5007826;28;20480;-74
2022/08/06 05:28:32;;;;;;;6.72;3.08;;;21.50;99.90;;;;;;5007013;28;20687;-74
2022/08/06 05:30:58;;;;;;;4.57;2.28;;;21.60;99.90;;;;;;5003979;28;20030;-74
2022/08/06 05:33:30;;;;;;;5.65;2.40;;;21.50;99.90;;;;;;5006103;28;20380;-74
2022/08/06 05:35:58;;;;;;;4.65;2.22;;;21.70;99.90;;;;;;5003898;28;20021;-74
2022/08/06 05:38:25;;;;;;;3.67;1.95;;;21.70;99.90;;;;;;5003867;28;20379;-74
2022/08/06 05:40:55;;;;;;;4.85;2.65;;;21.80;99.90;;;;;;5005298;28;20030;-74
2022/08/06 05:43:22;;;;;;;4.40;2.20;;;21.90;99.90;;;;;;5005249;28;20021;-74
2022/08/06 05:45:50;;;;;;;5.55;2.65;;;22.00;99.90;;;;;;5004355;28;20640;-74
2022/08/06 05:48:19;;;;;;;5.20;2.42;;;22.20;99.90;;;;;;5007016;28;20049;-74
2022/08/06 05:50:52;;;;;;;3.70;2.30;;;22.10;99.90;;;;;;5003618;28;20045;-74
2022/08/06 05:53:25;;;;;;;3.38;2.00;;;22.30;99.90;;;;;;5003982;28;20446;-74
2022/08/06 05:55:59;;;;;;;4.00;2.47;;;22.50;99.90;;;;;;5003656;28;20022;-74
2022/08/06 05:58:39;;;;;;;3.60;1.73;;;22.60;99.90;;;;;;5005162;28;20087;-74
2022/08/06 06:01:07;;;;;;;3.83;2.28;;;22.60;99.90;;;;;;5006621;28;20037;-74
2022/08/06 06:03:34;;;;;;;4.25;2.35;;;22.80;99.90;;;;;;5005212;28;20029;-74
2022/08/06 06:06:02;;;;;;;3.83;2.15;;;22.80;99.90;;;;;;5003355;28;20062;-74
2022/08/06 06:08:27;;;;;;;3.60;2.28;;;22.90;99.90;;;;;;5001496;28;20026;-74
2022/08/06 06:10:54;;;;;;;6.22;2.40;;;23.00;99.90;;;;;;5002004;28;20100;-74
2022/08/06 06:13:21;;;;;;;4.20;2.13;;;23.00;99.90;;;;;;5005412;28;20048;-74
2022/08/06 06:16:07;;;;;;;4.25;2.42;;;23.10;99.90;;;;;;5005483;28;20060;-74
2022/08/06 06:19:04;;;;;;;5.60;2.33;;;23.20;99.90;;;;;;5004214;28;20037;-74
2022/08/06 06:21:51;;;;;;;3.53;2.20;;;23.20;99.90;;;;;;5000572;28;20492;-74
2022/08/06 06:24:41;;;;;;;5.00;2.20;;;23.30;99.90;;;;;;5003552;28;20041;-74
2022/08/06 06:27:17;;;;;;;4.43;2.20;;;23.30;99.90;;;;;;5003863;28;20045;-74
2022/08/06 06:30:00;;;;;;;4.35;2.70;;;23.30;99.90;;;;;;4999360;28;20033;-74
2022/08/06 06:32:41;;;;;;;4.20;2.60;;;23.40;99.90;;;;;;5003553;28;20076;-74
2022/08/06 06:35:33;;;;;;;5.18;2.58;;;23.50;99.90;;;;;;5003244;28;20483;-74
2022/08/06 06:38:40;;;;;;;3.95;2.30;;;23.60;99.40;;;;;;5002308;28;20077;-74
2022/08/06 06:41:26;;;;;;;4.80;2.38;;;23.80;99.30;;;;;;5001641;28;20033;-74
2022/08/06 06:44:18;;;;;;;5.60;2.05;;;24.00;99.30;;;;;;5005029;28;20033;-74
2022/08/06 06:46:54;;;;;;;3.08;1.98;;;24.20;98.70;;;;;;5003593;28;20029;-73
2022/08/06 06:49:39;;;;;;;3.25;2.08;;;24.30;98.70;;;;;;5002335;28;20030;-74
2022/08/06 06:52:22;;;;;;;4.43;2.10;;;24.50;98.30;;;;;;5002618;28;20042;-74
2022/08/06 06:54:59;;;;;;;5.25;2.15;;;24.60;98.60;;;;;;5005657;28;20038;-74
2022/08/06 06:57:34;;;;;;;3.92;2.20;;;24.70;98.10;;;;;;5005406;28;20030;-74
2022/08/06 07:00:04;;;;;;;4.85;1.92;;;24.90;97.60;;;;;;5007475;28;20042;-74
2022/08/06 07:02:32;;;;;;;3.95;2.13;;;25.00;97.40;;;;;;5005928;28;20048;-74
2022/08/06 07:05:02;;;;;;;4.03;2.20;;;25.20;97.20;;;;;;5003112;28;20445;-75
2022/08/06 07:07:31;;;;;;;6.75;2.58;;;25.20;96.80;;;;;;5005659;28;20049;-74
2022/08/06 07:09:58;;;;;;;3.40;2.05;;;25.30;96.70;;;;;;5005756;28;20029;-74
2022/08/06 07:12:26;;;;;;;3.38;1.88;;;25.40;96.50;;;;;;5006361;28;20411;-74
2022/08/06 07:14:55;;;;;;;4.07;2.38;;;25.60;96.30;;;;;;5004905;28;20036;-74
2022/08/06 07:17:23;;;;;;;4.35;2.35;;;25.90;96.00;;;;;;5007047;28;20459;-74
2022/08/06 07:19:52;;;;;;;3.58;1.95;;;26.50;95.60;;;;;;5008442;28;20041;-75
2022/08/06 07:22:23;;;;;;;5.88;2.90;;;27.10;94.70;;;;;;5005777;28;20387;-74
2022/08/06 07:24:52;;;;;;;3.88;2.40;;;28.00;93.80;;;;;;5005698;28;20034;-75
2022/08/06 07:27:19;;;;;;;3.58;2.03;;;28.40;93.20;;;;;;5004786;28;20029;-75
2022/08/06 07:29:45;;;;;;;3.90;2.13;;;29.70;92.10;;;;;;5005522;28;20057;-74
2022/08/06 07:32:12;;;;;;;4.18;2.10;;;29.20;91.80;;;;;;5006551;28;20038;-74
2022/08/06 07:34:39;;;;;;;7.30;2.05;;;29.40;91.00;;;;;;5004173;28;20024;-75
2022/08/06 07:37:06;;;;;;;3.53;2.08;;;30.00;90.60;;;;;;5006844;28;20038;-74
2022/08/06 07:39:39;;;;;;;4.10;2.20;;;30.80;90.20;;;;;;5007759;28;20041;-74
2022/08/06 07:42:12;;;;;;;3.20;1.85;;;31.00;89.10;;;;;;5007663;28;20026;-72
2022/08/06 07:44:43;;;;;;;4.15;1.90;;;31.80;88.70;;;;;;5007196;28;20030;-72
2022/08/06 07:47:12;;;;;;;5.70;2.10;;;31.00;87.60;;;;;;5006998;28;20025;-72
2022/08/06 07:49:41;;;;;;;5.10;2.17;;;30.30;88.40;;;;;;5004075;28;20873;-72
2022/08/06 07:52:13;;;;;;;3.00;1.80;;;30.50;88.90;;;;;;5005457;28;20032;-73
2022/08/06 07:54:40;;;;;;;5.22;2.30;;;30.00;88.00;;;;;;5008338;28;20025;-72
2022/08/06 07:57:06;;;;;;;3.42;1.73;;;30.30;88.20;;;;;;5009162;28;20570;-73
2022/08/06 07:59:33;;;;;;;3.65;2.05;;;29.00;90.40;;;;;;5007841;28;20030;-72
2022/08/06 08:02:04;;;;;;;3.33;2.03;;;27.10;91.80;;;;;;5007567;28;20037;-72
2022/08/06 08:07:15;;;;;;;4.50;2.20;;;26.80;93.10;;;;;;4997743;28;20195;-73
2022/08/06 08:09:45;;;;;;;4.63;2.10;;;26.80;93.10;;;;;;5008274;28;20045;-72
2022/08/06 08:12:17;;;;;;;5.47;2.10;;;26.90;93.00;;;;;;5006192;28;20049;-72
2022/08/06 08:14:43;;;;;;;3.85;2.10;;;26.60;92.90;;;;;;5008221;28;20065;-72
2022/08/06 08:17:09;;;;;;;5.68;2.53;;;26.40;93.40;;;;;;5008492;28;20103;-74
2022/08/06 08:19:35;;;;;;;4.38;2.17;;;26.40;94.10;;;;;;5009523;28;20029;-75
2022/08/06 08:22:20;;;;;;;4.00;2.47;;;26.30;94.00;;;;;;5006166;28;20035;-75
2022/08/06 08:24:47;;;;;;;4.95;2.33;;;26.20;93.60;;;;;;5004790;28;20033;-74
2022/08/06 08:27:14;;;;;;;4.93;2.50;;;26.40;94.10;;;;;;5004538;28;20065;-74
2022/08/06 08:29:41;;;;;;;3.70;2.45;;;26.10;94.60;;;;;;5004069;28;20030;-74
2022/08/06 08:32:08;;;;;;;4.32;2.40;;;26.10;94.70;;;;;;5004587;28;20022;-75
2022/08/06 08:34:38;;;;;;;4.38;2.72;;;26.40;94.10;;;;;;5004758;28;20076;-74
2022/08/06 08:37:04;;;;;;;3.10;2.15;;;26.80;94.00;;;;;;5005113;28;20054;-74
2022/08/06 08:39:30;;;;;;;3.55;2.00;;;27.70;93.40;;;;;;5007803;28;20045;-75
2022/08/06 08:42:17;;;;;;;3.65;2.40;;;28.60;93.30;;;;;;5008570;28;20030;-74
2022/08/06 08:44:44;;;;;;;5.63;2.28;;;28.50;92.90;;;;;;5007654;28;20036;-75
2022/08/06 08:47:13;;;;;;;3.72;2.50;;;27.60;94.00;;;;;;5008609;28;20029;-74
2022/08/06 08:49:50;;;;;;;6.65;2.58;;;27.50;94.00;;;;;;5008666;28;20537;-74
2022/08/06 08:52:20;;;;;;;5.15;2.33;;;28.20;93.50;;;;;;5009585;28;20038;-75
2022/08/06 08:54:51;;;;;;;3.38;1.85;;;28.20;93.40;;;;;;5006342;28;20042;-75
2022/08/06 08:57:18;;;;;;;5.50;2.85;;;28.50;93.30;;;;;;5004961;28;20437;-75
2022/08/06 08:59:43;;;;;;;6.97;2.63;;;28.40;92.90;;;;;;5005271;28;20034;-72
2022/08/06 09:02:13;;;;;;;4.93;2.25;;;28.20;93.70;;;;;;5007484;28;20026;-72
2022/08/06 09:04:40;;;;;;;4.15;2.35;;;28.20;93.10;;;;;;5002266;28;20062;-72
2022/08/06 09:07:08;;;;;;;3.55;2.35;;;27.80;93.20;;;;;;5007797;28;20026;-73
2022/08/06 09:09:34;;;;;;;4.55;2.65;;;27.70;93.60;;;;;;5006783;28;20041;-76
2022/08/06 09:12:00;;;;;;;3.75;2.30;;;27.70;93.90;;;;;;5006857;28;20025;-75
2022/08/06 09:14:26;;;;;;;7.57;3.33;;;27.80;93.40;;;;;;5007341;28;20733;-73
2022/08/06 09:16:52;;;;;;;4.78;2.25;;;27.70;93.40;;;;;;5003967;28;20072;-72
2022/08/06 09:19:18;;;;;;;5.22;2.17;;;27.60;93.00;;;;;;5005995;28;20045;-72
2022/08/06 09:21:44;;;;;;;5.22;2.55;;;27.80;93.20;;;;;;5007638;28;20026;-75
2022/08/06 09:24:10;;;;;;;4.07;2.28;;;28.10;93.60;;;;;;5006868;28;20112;-73
2022/08/06 09:26:36;;;;;;;3.92;2.30;;;28.10;93.00;;;;;;5006656;28;20054;-73
2022/08/06 09:29:19;;;;;;;4.53;2.38;;;27.70;93.10;;;;;;5007897;28;20030;-72
2022/08/06 09:31:45;;;;;;;7.40;2.03;;;27.80;93.50;;;;;;5008121;28;20507;-72
2022/08/06 09:34:11;;;;;;;3.25;2.22;;;27.70;93.60;;;;;;5008122;28;20044;-72
2022/08/06 09:36:44;;;;;;;3.58;2.30;;;27.60;93.60;;;;;;5008188;28;20022;-72
2022/08/06 09:39:10;;;;;;;3.72;2.47;;;27.60;93.70;;;;;;5008397;28;20049;-72
2022/08/06 09:41:48;;;;;;;4.75;2.83;;;27.70;93.40;;;;;;5008428;28;20099;-74
2022/08/06 09:44:14;;;;;;;4.10;2.78;;;27.90;93.10;;;;;;5008529;28;20026;-74
2022/08/06 09:46:44;;;;;;;3.58;2.30;;;28.20;93.30;;;;;;5011584;28;20036;-74
2022/08/06 09:49:12;;;;;;;6.30;2.33;;;28.20;93.60;;;;;;5012018;28;20097;-74
2022/08/06 09:51:38;;;;;;;6.32;2.25;;;28.10;93.20;;;;;;5011876;28;20022;-74
2022/08/06 09:54:06;;;;;;;3.45;2.40;;;28.20;93.10;;;;;;5011620;28;20025;-74
2022/08/06 09:56:32;;;;;;;5.05;2.47;;;28.30;93.10;;;;;;5011401;28;20049;-72
2022/08/06 09:59:04;;;;;;;3.90;2.10;;;28.00;93.10;;;;;;5010619;28;20526;-72
2022/08/06 10:01:41;;;;;;;4.65;2.50;;;27.60;93.50;;;;;;5011466;28;20072;-74
2022/08/06 10:04:25;;;;;;;5.18;2.47;;;27.50;93.50;;;;;;5011679;28;20058;-74
2022/08/06 10:06:55;;;;;;;4.35;2.58;;;27.60;94.10;;;;;;5011739;28;20093;-74
2022/08/06 10:09:22;;;;;;;3.72;2.28;;;27.60;93.00;;;;;;5011791;28;20032;-74
2022/08/06 10:11:48;;;;;;;3.28;2.20;;;27.90;93.30;;;;;;5011222;28;20105;-74
2022/08/06 10:14:25;;;;;;;3.90;2.50;;;28.10;93.50;;;;;;5011430;28;20030;-74
2022/08/06 10:17:09;;;;;;;4.60;2.65;;;28.50;92.90;;;;;;5011449;28;20476;-74
2022/08/06 10:19:36;;;;;;;3.75;2.35;;;28.80;93.10;;;;;;5011809;28;20037;-72
2022/08/06 10:22:09;;;;;;;4.07;2.03;;;29.20;92.60;;;;;;5010759;28;20530;-72
2022/08/06 10:24:44;;;;;;;3.70;2.00;;;29.30;92.40;;;;;;5010745;28;20064;-72
2022/08/06 10:27:15;;;;;;;3.63;2.20;;;29.30;90.90;;;;;;5011114;28;20516;-72
2022/08/06 10:29:53;;;;;;;3.55;2.00;;;29.50;92.90;;;;;;5010356;28;20037;-72
2022/08/06 10:32:31;;;;;;;4.30;2.25;;;30.10;91.90;;;;;;5010677;28;20029;-72
2022/08/06 10:35:00;;;;;;;4.50;1.90;;;30.20;91.30;;;;;;5011008;28;20113;-72
2022/08/06 10:37:26;;;;;;;2.83;1.75;;;30.20;91.10;;;;;;5010710;28;20045;-72
2022/08/06 10:39:58;;;;;;;3.22;1.95;;;30.30;90.30;;;;;;5010866;28;20045;-72
2022/08/06 10:42:25;;;;;;;3.33;2.17;;;30.10;90.00;;;;;;5010937;28;20026;-71
2022/08/06 10:44:51;;;;;;;5.68;2.08;;;29.90;90.10;;;;;;5010903;28;20088;-72
2022/08/06 10:47:18;;;;;;;3.30;1.85;;;30.40;90.80;;;;;;5010935;28;20072;-72
2022/08/06 10:49:44;;;;;;;5.25;2.00;;;30.20;89.90;;;;;;5010994;28;20026;-72
2022/08/06 10:52:12;;;;;;;5.93;2.10;;;30.10;90.10;;;;;;5010996;28;20045;-72
2022/08/06 10:54:39;;;;;;;4.65;1.90;;;30.00;90.60;;;;;;5010970;28;20022;-72
2022/08/06 10:57:08;;;;;;;4.40;2.50;;;29.90;90.00;;;;;;5010797;28;20384;-72
2022/08/06 10:59:34;;;;;;;4.95;1.92;;;29.80;91.30;;;;;;5010405;28;20041;-72
2022/08/06 11:02:12;;;;;;;2.70;1.73;;;29.70;90.50;;;;;;5010448;28;20116;-72
2022/08/06 11:05:11;;;;;;;4.38;2.03;;;29.80;90.90;;;;;;5010612;28;20065;-72
2022/08/06 11:07:55;;;;;;;4.53;2.10;;;29.80;90.30;;;;;;5010498;28;20022;-72
2022/08/06 11:10:29;;;;;;;3.50;1.88;;;30.00;90.20;;;;;;5010095;28;20392;-72
2022/08/06 11:13:18;;;;;;;4.85;1.75;;;29.80;89.80;;;;;;5010431;28;20079;-72
2022/08/06 11:15:44;;;;;;;3.92;1.85;;;29.70;90.90;;;;;;5009318;28;20034;-72
2022/08/06 11:18:12;;;;;;;2.53;1.58;;;29.60;89.90;;;;;;5010152;28;20080;-72
2022/08/06 11:20:40;;;;;;;5.20;1.73;;;30.10;90.10;;;;;;5010131;28;20109;-72
2022/08/06 11:23:11;;;;;;;3.65;1.92;;;30.70;90.00;;;;;;5010012;28;20030;-72
2022/08/06 11:26:02;;;;;;;2.65;1.50;;;31.00;89.50;;;;;;5010061;28;20045;-72
2022/08/06 11:28:31;;;;;;;3.65;1.50;;;30.80;88.80;;;;;;5010845;28;20040;-72
2022/08/06 11:30:59;;;;;;;2.38;1.33;;;30.80;88.60;;;;;;5009415;28;20373;-72
2022/08/06 11:33:35;;;;;;;4.97;1.70;;;30.60;89.20;;;;;;5009649;28;20038;-72
2022/08/06 11:36:01;;;;;;;7.90;2.00;;;30.90;89.70;;;;;;5009370;28;20033;-72
2022/08/06 11:38:46;;;;;;;2.50;1.50;;;30.80;87.50;;;;;;5009939;28;20074;-72
2022/08/06 11:41:18;;;;;;;2.80;1.58;;;30.80;87.70;;;;;;5009774;28;20030;-72
2022/08/06 11:43:47;;;;;;;2.67;1.55;;;30.80;87.70;;;;;;5009823;28;20464;-72
2022/08/06 11:46:37;;;;;;;2.90;1.60;;;30.60;86.40;;;;;;5009840;28;20034;-72
2022/08/06 11:49:03;;;;;;;2.63;1.50;;;30.40;86.50;;;;;;5009810;28;20184;-72
2022/08/06 11:51:49;;;;;;;3.83;1.85;;;30.50;87.70;;;;;;5009854;28;20030;-72
2022/08/06 11:54:33;;;;;;;3.55;1.70;;;30.60;86.70;;;;;;5009496;28;20591;-72
2022/08/06 11:57:01;;;;;;;2.13;1.30;;;30.60;86.00;;;;;;5009487;28;20192;-72
2022/08/06 11:59:29;;;;;;;3.15;1.67;;;30.60;85.20;;;;;;5009725;28;20040;-72
2022/08/06 12:01:56;;;;;;;3.60;1.88;;;30.30;87.20;;;;;;5009518;28;20053;-72
2022/08/06 12:04:42;;;;;;;3.88;1.58;;;30.60;85.70;;;;;;5009112;28;20109;-72
2022/08/06 12:07:30;;;;;;;4.80;1.95;;;30.80;86.30;;;;;;5008751;28;20476;-72
2022/08/06 12:10:06;;;;;;;2.70;1.60;;;30.70;86.90;;;;;;5009369;28;20112;-72
2022/08/06 12:12:35;;;;;;;2.58;1.63;;;30.50;87.70;;;;;;5009030;28;20026;-72
2022/08/06 12:15:22;;;;;;;3.45;1.60;;;30.60;88.10;;;;;;5008926;28;20030;-72
2022/08/06 12:17:57;;;;;;;3.10;1.70;;;30.50;86.90;;;;;;5009100;28;20037;-71
2022/08/06 12:20:37;;;;;;;3.20;1.50;;;30.20;87.50;;;;;;5009052;28;20033;-72
2022/08/06 12:23:08;;;;;;;3.95;2.00;;;30.00;85.70;;;;;;5009077;28;20034;-72
2022/08/06 12:25:39;;;;;;;5.65;2.17;;;30.00;87.40;;;;;;5008897;28;20105;-72
2022/08/06 12:28:07;;;;;;;2.63;1.58;;;29.80;89.10;;;;;;5008959;28;20029;-71
2022/08/06 12:30:50;;;;;;;3.70;1.98;;;29.70;88.60;;;;;;5008834;28;20076;-72
2022/08/06 12:33:17;;;;;;;4.18;1.70;;;29.60;87.90;;;;;;5009000;28;20357;-71
2022/08/06 12:35:56;;;;;;;3.80;1.58;;;29.30;88.20;;;;;;5008588;28;20053;-72
2022/08/06 12:38:25;;;;;;;2.67;1.45;;;29.30;89.00;;;;;;5008366;28;20080;-72
2022/08/06 12:41:08;;;;;;;5.60;2.10;;;29.30;90.00;;;;;;5008564;28;20022;-72
2022/08/06 12:43:35;;;;;;;3.00;1.60;;;29.30;89.80;;;;;;5008675;28;20084;-72
2022/08/06 12:46:06;;;;;;;3.97;1.92;;;29.50;90.00;;;;;;5008447;28;20080;-72
2022/08/06 12:48:33;;;;;;;6.68;1.60;;;29.40;89.50;;;;;;5008669;28;20109;-72
2022/08/06 12:51:10;;;;;;;2.80;1.77;;;29.30;91.90;;;;;;5008727;28;20365;-72
2022/08/06 12:53:47;;;;;;;3.50;1.63;;;29.10;91.20;;;;;;5009003;28;20029;-72
2022/08/06 12:56:14;;;;;;;2.50;1.50;;;29.00;91.80;;;;;;5009086;28;20022;-72
2022/08/06 12:58:41;;;;;;;3.17;1.67;;;29.00;90.80;;;;;;5008497;28;20034;-72
2022/08/06 13:01:10;;;;;;;3.20;1.70;;;29.00;91.50;;;;;;5008552;28;20101;-72
2022/08/06 13:03:39;;;;;;;3.50;1.60;;;29.20;91.00;;;;;;5008039;28;20101;-72
2022/08/06 13:06:07;;;;;;;3.35;1.70;;;29.90;90.80;;;;;;5008512;28;20030;-72
2022/08/06 13:08:33;;;;;;;8.13;2.22;;;30.20;90.20;;;;;;5009015;28;20156;-72
2022/08/06 13:10:59;;;;;;;2.88;1.83;;;30.20;89.80;;;;;;5008848;28;20377;-72